createdAt,value
2023-04-12T00:01:13.513Z,1.59
2023-04-12T00:03:40.328Z,1.65
2023-04-12T00:06:07.548Z,1.62
2023-04-12T00:08:34.284Z,1.64
2023-04-12T00:11:01.778Z,1.56
2023-04-12T00:13:28.887Z,1.50
2023-04-12T00:15:55.759Z,1.51
2023-04-12T00:18:23.684Z,1.66
2023-04-12T00:20:51.655Z,1.71
2023-04-12T00:23:19.199Z,1.59
2023-04-12T00:25:45.898Z,1.52
2023-04-12T00:28:12.695Z,1.70
2023-04-12T00:31:13.380Z,1.94
2023-04-12T00:33:40.094Z,1.56
2023-04-12T00:36:08.441Z,1.57
2023-04-12T00:38:35.356Z,1.94
2023-04-12T00:41:02.622Z,2.55
2023-04-12T00:43:29.360Z,1.75
2023-04-12T00:45:56.140Z,2.10
2023-04-12T00:48:23.906Z,1.98
2023-04-12T00:50:50.616Z,2.09
2023-04-12T00:53:17.326Z,1.76
2023-04-12T00:55:44.689Z,1.90
2023-04-12T00:58:11.446Z,1.57
2023-04-12T01:00:38.221Z,1.73
2023-04-12T01:03:05.130Z,1.64
2023-04-12T01:05:31.996Z,1.84
2023-04-12T01:08:15.344Z,1.74
2023-04-12T01:11:13.234Z,1.74
2023-04-12T01:13:51.122Z,1.60
2023-04-12T01:16:38.879Z,1.75
2023-04-12T01:19:12.856Z,1.68
2023-04-12T01:21:49.325Z,1.92
2023-04-12T01:24:21.907Z,1.78
2023-04-12T01:26:49.743Z,1.56
2023-04-12T01:29:21.428Z,1.79
2023-04-12T01:32:17.395Z,1.84
2023-04-12T01:34:44.151Z,1.91
2023-04-12T01:37:11.222Z,2.14
2023-04-12T01:39:39.275Z,2.11
2023-04-12T01:42:06.012Z,2.22
2023-04-12T01:44:33.323Z,2.32
2023-04-12T01:47:00.000Z,2.14
2023-04-12T01:49:26.997Z,2.58
2023-04-12T01:52:02.739Z,2.31
2023-04-12T01:54:33.600Z,2.26
2023-04-12T01:57:02.215Z,2.34
2023-04-12T01:59:32.082Z,2.41
2023-04-12T02:01:58.887Z,2.27
2023-04-12T02:04:25.679Z,2.51
2023-04-12T02:06:52.418Z,2.51
2023-04-12T02:09:19.467Z,2.42
2023-04-12T02:11:50.733Z,2.60
2023-04-12T02:14:17.463Z,2.64
2023-04-12T02:16:44.902Z,2.74
2023-04-12T02:19:12.365Z,2.70
2023-04-12T02:21:45.471Z,2.48
2023-04-12T02:24:12.733Z,2.59
2023-04-12T02:26:39.599Z,2.70
2023-04-12T02:29:06.627Z,2.67
2023-04-12T02:31:33.949Z,2.55
2023-04-12T02:34:00.936Z,2.43
2023-04-12T02:36:27.621Z,2.67
2023-04-12T02:38:54.827Z,2.77
2023-04-12T02:41:22.532Z,2.62
2023-04-12T02:43:49.293Z,2.68
2023-04-12T02:46:22.804Z,2.85
2023-04-12T02:48:50.122Z,3.96
2023-04-12T02:51:17.329Z,3.52
2023-04-12T02:53:44.018Z,2.85
2023-04-12T02:56:10.887Z,2.55
2023-04-12T02:58:37.648Z,2.52
2023-04-12T03:01:05.054Z,2.71
2023-04-12T03:03:32.113Z,2.43
2023-04-12T03:05:59.595Z,2.76
2023-04-12T03:08:26.330Z,2.43
2023-04-12T03:10:56.254Z,2.44
2023-04-12T03:13:23.141Z,2.48
2023-04-12T03:15:54.610Z,2.53
2023-04-12T03:18:21.538Z,2.61
2023-04-12T03:20:48.228Z,2.40
2023-04-12T03:23:15.381Z,2.57
2023-04-12T03:25:42.118Z,2.45
2023-04-12T03:28:09.177Z,2.26
2023-04-12T03:30:36.396Z,2.65
2023-04-12T03:33:03.194Z,2.56
2023-04-12T03:35:29.971Z,2.50
2023-04-12T03:37:56.710Z,2.49
2023-04-12T03:40:23.435Z,2.38
2023-04-12T03:42:50.277Z,2.43
2023-04-12T03:45:17.413Z,2.29
2023-04-12T03:47:44.687Z,2.48
2023-04-12T03:50:12.312Z,2.30
2023-04-12T03:52:39.356Z,2.14
2023-04-12T03:55:06.513Z,2.11
2023-04-12T03:57:34.285Z,2.11
2023-04-12T04:00:01.129Z,2.27
2023-04-12T04:02:27.930Z,2.32
2023-04-12T04:04:55.094Z,2.44
2023-04-12T04:07:22.121Z,2.23
2023-04-12T04:09:48.813Z,2.31
2023-04-12T04:12:15.517Z,2.48
2023-04-12T04:14:42.210Z,2.16
2023-04-12T04:17:08.947Z,2.23
2023-04-12T04:19:36.134Z,3.47
2023-04-12T04:22:03.012Z,5.37
2023-04-12T04:24:30.077Z,7.74
2023-04-12T04:26:56.913Z,11.92
2023-04-12T04:29:23.761Z,11.81
2023-04-12T04:31:50.591Z,10.44
2023-04-12T04:34:17.412Z,8.00
2023-04-12T04:36:44.238Z,4.05
2023-04-12T04:39:11.092Z,2.75
2023-04-12T04:41:37.927Z,2.25
2023-04-12T04:44:08.444Z,4.78
2023-04-12T04:46:38.485Z,4.03
2023-04-12T04:49:05.605Z,2.18
2023-04-12T04:51:32.302Z,2.08
2023-04-12T04:54:00.562Z,1.90
2023-04-12T04:56:30.067Z,1.71
2023-04-12T04:58:57.320Z,1.93
2023-04-12T05:01:25.810Z,1.92
2023-04-12T05:03:53.548Z,1.91
2023-04-12T05:06:21.515Z,1.90
2023-04-12T05:08:48.888Z,1.83
2023-04-12T05:11:15.594Z,1.83
2023-04-12T05:13:42.935Z,1.84
2023-04-12T05:16:09.946Z,1.98
2023-04-12T05:18:37.972Z,1.67
2023-04-12T05:21:07.500Z,4.29
2023-04-12T05:23:37.945Z,4.53
2023-04-12T05:26:04.971Z,3.71
2023-04-12T05:28:31.668Z,2.26
2023-04-12T05:30:58.622Z,2.21
2023-04-12T05:33:25.567Z,1.84
2023-04-12T05:35:52.677Z,1.67
2023-04-12T05:38:19.968Z,1.90
2023-04-12T05:40:49.260Z,1.99
2023-04-12T05:43:16.348Z,1.98
2023-04-12T05:45:45.827Z,1.86
2023-04-12T05:48:12.591Z,1.70
2023-04-12T05:50:40.140Z,2.05
2023-04-12T05:53:07.400Z,1.95
2023-04-12T05:55:35.947Z,1.76
2023-04-12T05:58:04.116Z,1.91
2023-04-12T06:00:43.985Z,2.26
2023-04-12T06:03:11.044Z,1.76
2023-04-12T06:05:39.565Z,1.91
2023-04-12T06:08:06.422Z,2.02
2023-04-12T06:10:33.168Z,2.02
2023-04-12T06:13:00.170Z,1.75
2023-04-12T06:15:43.456Z,1.98
2023-04-12T06:18:10.299Z,1.94
2023-04-12T06:20:39.307Z,2.00
2023-04-12T06:23:06.140Z,1.97
2023-04-12T06:25:33.717Z,2.13
2023-04-12T06:28:00.497Z,2.12
2023-04-12T06:30:43.335Z,2.97
2023-04-12T06:33:10.067Z,7.65
2023-04-12T06:35:38.369Z,3.55
2023-04-12T06:38:05.129Z,2.19
2023-04-12T06:40:31.982Z,1.92
2023-04-12T06:43:00.317Z,1.86
2023-04-12T06:45:27.062Z,1.86
2023-04-12T06:47:53.884Z,1.89
2023-04-12T06:50:20.621Z,1.81
2023-04-12T06:52:47.753Z,1.94
2023-04-12T06:55:15.248Z,2.00
2023-04-12T06:57:42.448Z,1.95
2023-04-12T07:00:11.071Z,1.71
2023-04-12T07:02:38.070Z,1.96
2023-04-12T07:05:06.018Z,2.21
2023-04-12T07:07:33.360Z,2.55
2023-04-12T07:10:00.091Z,2.01
2023-04-12T07:12:27.892Z,2.03
2023-04-12T07:14:56.663Z,1.82
2023-04-12T07:17:24.206Z,1.87
2023-04-12T07:19:51.119Z,1.83
2023-04-12T07:22:17.984Z,1.93
2023-04-12T07:24:44.671Z,1.92
2023-04-12T07:27:11.449Z,1.88
2023-04-12T07:29:38.436Z,1.81
2023-04-12T07:32:05.323Z,1.86
2023-04-12T07:34:32.121Z,1.92
2023-04-12T07:36:59.418Z,1.85
2023-04-12T07:39:26.213Z,1.90
2023-04-12T07:41:52.958Z,1.91
2023-04-12T07:44:19.653Z,1.84
2023-04-12T07:46:46.343Z,1.86
2023-04-12T07:49:13.971Z,1.89
2023-04-12T07:51:40.673Z,2.22
2023-04-12T07:54:07.492Z,2.27
2023-04-12T07:56:34.468Z,2.19
2023-04-12T07:59:01.354Z,2.21
2023-04-12T08:01:28.443Z,2.02
2023-04-12T08:03:55.407Z,2.11
2023-04-12T08:06:22.305Z,1.99
2023-04-12T08:08:49.046Z,2.11
2023-04-12T08:11:15.746Z,1.88
2023-04-12T08:13:42.449Z,2.29
2023-04-12T08:16:09.310Z,2.34
2023-04-12T08:18:36.116Z,2.24
2023-04-12T08:21:03.759Z,2.08
2023-04-12T08:23:31.368Z,1.96
2023-04-12T08:25:58.089Z,2.19
2023-04-12T08:28:24.906Z,2.11
2023-04-12T08:30:52.420Z,2.18
2023-04-12T08:33:19.408Z,2.00
2023-04-12T08:35:46.469Z,2.17
2023-04-12T08:38:13.406Z,2.18
2023-04-12T08:40:42.173Z,2.23
2023-04-12T08:43:13.254Z,2.05
2023-04-12T08:45:40.714Z,2.18
2023-04-12T08:48:07.462Z,2.13
2023-04-12T08:50:34.224Z,2.10
2023-04-12T08:53:01.007Z,2.10
2023-04-12T08:55:27.732Z,2.22
2023-04-12T08:57:55.742Z,2.06
2023-04-12T09:00:22.597Z,2.09
2023-04-12T09:02:49.843Z,2.06
2023-04-12T09:05:16.755Z,2.05
2023-04-12T09:07:43.568Z,1.92
2023-04-12T09:10:10.346Z,1.71
2023-04-12T09:12:45.577Z,1.91
2023-04-12T09:15:14.003Z,2.03
2023-04-12T09:17:42.723Z,2.03
2023-04-12T09:20:15.652Z,1.91
2023-04-12T09:22:42.763Z,1.85
2023-04-12T09:25:09.565Z,1.92
2023-04-12T09:27:49.386Z,1.86
2023-04-12T09:30:17.840Z,1.95
2023-04-12T09:32:44.728Z,2.04
2023-04-12T09:35:11.887Z,1.83
2023-04-12T09:37:39.001Z,1.83
2023-04-12T09:40:07.270Z,1.92
2023-04-12T09:42:34.805Z,2.09
2023-04-12T09:45:22.430Z,1.97
2023-04-12T09:47:49.830Z,2.02
2023-04-12T09:50:27.364Z,1.90
2023-04-12T09:52:55.400Z,1.89
2023-04-12T09:55:33.206Z,2.12
2023-04-12T09:58:03.075Z,2.00
2023-04-12T10:00:38.148Z,2.05
2023-04-12T10:03:05.484Z,2.11
2023-04-12T10:05:35.774Z,2.05
2023-04-12T10:08:03.604Z,1.94
2023-04-12T10:10:30.954Z,1.92
2023-04-12T10:12:57.763Z,2.01
2023-04-12T10:15:24.558Z,2.11
2023-04-12T10:17:54.775Z,1.80
2023-04-12T10:20:22.605Z,1.83
2023-04-12T10:22:51.307Z,1.81
2023-04-12T10:25:23.610Z,1.80
2023-04-12T10:27:50.363Z,2.13
2023-04-12T10:30:25.178Z,2.07
2023-04-12T10:33:09.588Z,1.82
2023-04-12T10:35:48.672Z,1.85
2023-04-12T10:38:17.195Z,1.92
2023-04-12T10:41:19.422Z,2.21
2023-04-12T10:43:49.866Z,2.09
2023-04-12T10:46:38.048Z,2.13
2023-04-12T10:49:27.783Z,2.08
2023-04-12T10:52:00.812Z,2.21
2023-04-12T10:54:29.421Z,2.07
2023-04-12T10:56:56.205Z,2.37
2023-04-12T10:59:27.175Z,2.00
2023-04-12T11:02:07.627Z,2.32
2023-04-12T11:04:35.389Z,2.40
2023-04-12T11:07:02.818Z,2.24
2023-04-12T11:09:36.437Z,2.15
2023-04-12T11:12:09.566Z,2.19
2023-04-12T11:14:39.216Z,2.31
2023-04-12T11:17:05.943Z,2.38
2023-04-12T11:19:33.627Z,2.42
2023-04-12T11:22:01.010Z,2.50
2023-04-12T11:24:27.943Z,2.53
2023-04-12T11:26:54.639Z,2.43
2023-04-12T11:29:25.106Z,2.56
2023-04-12T11:31:52.268Z,2.71
2023-04-12T11:34:19.500Z,2.42
2023-04-12T11:36:46.483Z,2.51
2023-04-12T11:39:13.526Z,2.70
2023-04-12T11:41:47.284Z,2.65
2023-04-12T11:44:14.490Z,2.60
2023-04-12T11:46:41.743Z,2.61
2023-04-12T11:49:08.472Z,2.73
2023-04-12T11:51:35.308Z,2.63
2023-04-12T11:54:02.266Z,2.64
2023-04-12T11:56:29.457Z,2.78
2023-04-12T11:58:56.616Z,2.69
2023-04-12T12:01:23.737Z,2.92
2023-04-12T12:03:53.457Z,2.78
2023-04-12T12:06:20.990Z,2.70
2023-04-12T12:08:49.698Z,2.50
2023-04-12T12:11:16.426Z,2.52
2023-04-12T12:13:48.303Z,2.36
2023-04-12T12:16:15.647Z,2.53
2023-04-12T12:18:46.616Z,2.60
2023-04-12T12:21:13.885Z,2.49
2023-04-12T12:23:43.177Z,2.56
2023-04-12T12:26:19.111Z,2.74
2023-04-12T12:28:55.079Z,2.51
2023-04-12T12:31:26.120Z,2.76
2023-04-12T12:33:59.477Z,2.92
2023-04-12T12:36:36.501Z,2.90
2023-04-12T12:39:30.173Z,2.98
2023-04-12T12:41:56.947Z,3.15
2023-04-12T12:44:25.382Z,3.44
2023-04-12T12:46:58.720Z,3.12
2023-04-12T12:49:30.391Z,2.76
2023-04-12T12:51:57.258Z,2.76
2023-04-12T12:54:39.447Z,2.45
2023-04-12T12:57:08.134Z,2.56
2023-04-12T12:59:35.361Z,2.62
2023-04-12T13:02:02.628Z,2.31
2023-04-12T13:04:29.621Z,2.18
2023-04-12T13:06:56.956Z,2.05
2023-04-12T13:09:24.132Z,2.06
2023-04-12T13:11:50.997Z,1.93
2023-04-12T13:14:17.814Z,1.91
2023-04-12T13:16:45.199Z,1.92
2023-04-12T13:19:12.688Z,2.05
2023-04-12T13:21:40.041Z,2.23
2023-04-12T13:24:07.766Z,2.09
2023-04-12T13:26:37.455Z,2.43
2023-04-12T13:29:04.413Z,2.32
2023-04-12T13:31:32.074Z,2.31
2023-04-12T13:33:58.841Z,2.07
2023-04-12T13:36:25.884Z,2.22
2023-04-12T13:38:52.954Z,2.36
2023-04-12T13:41:20.988Z,2.25
2023-04-12T13:43:48.850Z,2.72
2023-04-12T13:46:16.094Z,2.50
2023-04-12T13:48:46.033Z,2.41
2023-04-12T13:51:13.285Z,2.73
2023-04-12T13:53:40.259Z,2.51
2023-04-12T13:56:07.205Z,2.36
2023-04-12T13:58:34.008Z,2.63
2023-04-12T14:01:00.849Z,2.71
2023-04-12T14:03:30.542Z,2.81
2023-04-12T14:05:57.741Z,2.97
2023-04-12T14:08:25.690Z,2.95
2023-04-12T14:10:52.979Z,2.88
2023-04-12T14:13:20.306Z,3.19
2023-04-12T14:15:47.273Z,3.24
2023-04-12T14:18:14.638Z,3.09
2023-04-12T14:20:42.429Z,3.35
2023-04-12T14:23:09.760Z,3.44
2023-04-12T14:25:39.017Z,3.48
2023-04-12T14:28:08.595Z,3.31
2023-04-12T14:30:35.403Z,3.36
2023-04-12T14:33:03.481Z,3.26
2023-04-12T14:35:30.320Z,3.29
2023-04-12T14:37:57.414Z,3.18
2023-04-12T14:40:24.761Z,3.64
2023-04-12T14:42:51.446Z,3.26
2023-04-12T14:45:18.327Z,3.34
2023-04-12T14:47:45.507Z,2.88
2023-04-12T14:50:12.225Z,3.06
2023-04-12T14:52:40.145Z,3.24
2023-04-12T14:55:07.349Z,3.04
2023-04-12T14:57:34.376Z,2.96
2023-04-12T15:00:01.166Z,3.33
2023-04-12T15:05:19.650Z,3.70
2023-04-12T15:07:48.422Z,4.01
2023-04-12T15:10:15.689Z,3.86
2023-04-12T15:12:42.539Z,3.81
2023-04-12T15:15:09.880Z,3.98
2023-04-12T15:17:36.611Z,4.49
2023-04-12T15:20:03.592Z,4.80
2023-04-12T15:22:30.487Z,5.13
2023-04-12T15:24:57.606Z,5.17
2023-04-12T15:27:27.286Z,4.96
2023-04-12T15:29:54.145Z,4.56
2023-04-12T15:32:21.380Z,4.05
2023-04-12T15:34:48.225Z,3.75
2023-04-12T15:37:15.417Z,3.85
2023-04-12T15:39:42.224Z,3.04
2023-04-12T15:42:09.207Z,2.97
2023-04-12T15:44:36.987Z,2.98
2023-04-12T15:47:11.636Z,2.58
2023-04-12T15:49:40.003Z,2.77
2023-04-12T15:52:07.038Z,1.94
2023-04-12T15:54:33.778Z,1.42
2023-04-12T15:57:00.514Z,1.49
2023-04-12T15:59:28.706Z,1.69
2023-04-12T16:01:56.995Z,1.52
2023-04-12T16:04:24.223Z,1.75
2023-04-12T16:06:50.994Z,1.92
2023-04-12T16:09:17.831Z,2.19
2023-04-12T16:11:46.608Z,2.39
2023-04-12T16:14:14.660Z,3.07
2023-04-12T16:16:42.211Z,3.30
2023-04-12T16:19:09.109Z,3.22
2023-04-12T16:21:35.949Z,3.47
2023-04-12T16:24:03.130Z,3.69
2023-04-12T16:26:30.448Z,3.48
2023-04-12T16:28:57.324Z,3.49
2023-04-12T16:31:24.280Z,3.47
2023-04-12T16:33:51.425Z,3.29
2023-04-12T16:36:18.156Z,3.42
2023-04-12T16:38:44.984Z,3.22
2023-04-12T16:41:12.149Z,3.22
2023-04-12T16:43:39.002Z,2.94
2023-04-12T16:46:06.896Z,2.90
2023-04-12T16:48:33.590Z,2.78
2023-04-12T16:51:03.524Z,2.67
2023-04-12T16:53:30.338Z,2.64
2023-04-12T16:55:59.811Z,2.84
2023-04-12T16:58:26.615Z,2.84
2023-04-12T17:00:53.298Z,3.49
2023-04-12T17:03:20.659Z,3.35
2023-04-12T17:05:47.768Z,3.21
2023-04-12T17:08:14.455Z,2.66
2023-04-12T17:10:41.772Z,2.28
2023-04-12T17:13:08.462Z,2.29
2023-04-12T17:15:36.389Z,2.20
2023-04-12T17:18:04.374Z,2.52
2023-04-12T17:20:31.373Z,2.60
2023-04-12T17:22:58.508Z,2.64
2023-04-12T17:25:27.205Z,2.78
2023-04-12T17:27:54.298Z,1.78
2023-04-12T17:30:21.597Z,1.55
2023-04-12T17:32:48.332Z,1.91
2023-04-12T17:35:16.156Z,2.38
2023-04-12T17:37:43.365Z,2.49
2023-04-12T17:40:10.933Z,1.92
2023-04-12T17:42:38.895Z,2.27
2023-04-12T17:45:06.126Z,1.85
2023-04-12T17:47:35.437Z,1.66
2023-04-12T17:50:02.572Z,1.82
2023-04-12T17:52:29.288Z,1.47
2023-04-12T17:54:56.034Z,1.28
2023-04-12T17:57:23.125Z,1.27
2023-04-12T17:59:49.842Z,1.52
2023-04-12T18:02:16.781Z,1.44
2023-04-12T18:04:43.841Z,1.59
2023-04-12T18:07:11.764Z,2.04
2023-04-12T18:09:38.838Z,1.96
2023-04-12T18:12:05.759Z,1.26
2023-04-12T18:14:32.900Z,1.34
2023-04-12T18:16:59.720Z,1.45
2023-04-12T18:19:26.793Z,1.66
2023-04-12T18:21:53.864Z,1.75
2023-04-12T18:24:20.780Z,1.98
2023-04-12T18:26:47.756Z,2.54
2023-04-12T18:29:15.266Z,2.06
2023-04-12T18:31:42.177Z,2.23
2023-04-12T18:34:09.298Z,2.07
2023-04-12T18:36:36.607Z,2.01
2023-04-12T18:39:06.545Z,2.21
2023-04-12T18:41:33.724Z,2.42
2023-04-12T18:44:00.651Z,2.73
2023-04-12T18:46:27.884Z,3.24
2023-04-12T18:48:55.020Z,3.01
2023-04-12T18:51:22.237Z,2.86
2023-04-12T18:53:48.908Z,2.16
2023-04-12T18:56:17.189Z,2.30
2023-04-12T18:58:54.453Z,1.93
2023-04-12T19:01:22.896Z,1.91
2023-04-12T19:03:49.815Z,2.15
2023-04-12T19:06:17.414Z,2.02
2023-04-12T19:08:44.187Z,2.12
2023-04-12T19:11:10.925Z,2.03
2023-04-12T19:13:37.741Z,1.98
2023-04-12T19:16:05.961Z,2.13
2023-04-12T19:18:33.019Z,1.93
2023-04-12T19:20:59.717Z,2.08
2023-04-12T19:23:26.420Z,1.99
2023-04-12T19:25:53.924Z,1.70
2023-04-12T19:28:20.754Z,1.64
2023-04-12T19:30:48.522Z,1.75
2023-04-12T19:33:18.077Z,1.84
2023-04-12T19:35:44.770Z,1.63
2023-04-12T19:38:11.485Z,1.59
2023-04-12T19:40:38.668Z,1.32
2023-04-12T19:43:05.367Z,1.26
2023-04-12T19:45:32.101Z,1.14
2023-04-12T19:47:59.088Z,0.92
2023-04-12T19:50:27.462Z,0.61
2023-04-12T19:52:54.621Z,0.68
2023-04-12T19:55:21.471Z,0.71
2023-04-12T19:57:48.390Z,0.86
2023-04-12T20:00:15.318Z,0.84
2023-04-12T20:02:42.165Z,0.73
2023-04-12T20:05:09.139Z,0.85
2023-04-12T20:07:35.810Z,0.78
2023-04-12T20:10:02.699Z,0.71
2023-04-12T20:12:30.582Z,0.92
2023-04-12T20:14:57.580Z,1.00
2023-04-12T20:17:24.396Z,1.25
2023-04-12T20:19:52.138Z,2.60
2023-04-12T20:22:20.147Z,1.07
2023-04-12T20:24:47.221Z,0.98
2023-04-12T20:27:13.916Z,1.10
2023-04-12T20:29:40.754Z,0.89
2023-04-12T20:32:07.453Z,1.06
2023-04-12T20:34:34.523Z,0.83
2023-04-12T20:37:01.601Z,0.99
2023-04-12T20:39:28.432Z,0.83
2023-04-12T20:41:55.532Z,0.79
2023-04-12T20:44:22.268Z,0.80
2023-04-12T20:46:49.307Z,0.83
2023-04-12T20:49:16.394Z,1.77
2023-04-12T20:51:44.445Z,0.74
2023-04-12T20:54:11.290Z,0.63
2023-04-12T20:56:38.163Z,0.72
2023-04-12T20:59:04.905Z,0.73
2023-04-12T21:01:57.557Z,0.75
2023-04-12T21:04:24.838Z,0.69
2023-04-12T21:06:54.365Z,0.68
2023-04-12T21:09:21.673Z,0.86
2023-04-12T21:11:48.358Z,0.95
2023-04-12T21:14:15.050Z,0.82
2023-04-12T21:16:51.909Z,0.71
2023-04-12T21:19:18.945Z,0.70
2023-04-12T21:21:46.199Z,0.60
2023-04-12T21:24:15.710Z,0.58
2023-04-12T21:26:42.914Z,0.66
2023-04-12T21:29:09.670Z,0.78
2023-04-12T21:31:36.955Z,0.77
2023-04-12T21:34:04.747Z,0.87
2023-04-12T21:36:31.508Z,0.73
2023-04-12T21:38:58.910Z,0.75
2023-04-12T21:41:26.228Z,0.68
2023-04-12T21:43:52.923Z,0.75
2023-04-12T21:46:19.786Z,0.78
2023-04-12T21:48:49.543Z,0.71
2023-04-12T21:51:18.514Z,0.81
2023-04-12T21:53:45.344Z,0.72
2023-04-12T21:56:12.094Z,0.76
2023-04-12T21:58:38.778Z,0.76
2023-04-12T22:01:06.426Z,0.87
2023-04-12T22:03:33.232Z,0.79
2023-04-12T22:06:04.235Z,0.69
2023-04-12T22:08:34.916Z,0.74
2023-04-12T22:11:02.442Z,0.86
2023-04-12T22:13:29.535Z,0.89
2023-04-12T22:15:56.598Z,0.78
2023-04-12T22:18:23.321Z,0.82
2023-04-12T22:20:50.015Z,0.86
2023-04-12T22:23:17.057Z,0.76
2023-04-12T22:25:44.860Z,0.66
2023-04-12T22:28:12.129Z,0.81
2023-04-12T22:30:38.948Z,1.04
2023-04-12T22:33:05.870Z,0.88
2023-04-12T22:35:32.909Z,0.81
2023-04-12T22:37:59.631Z,1.11
2023-04-12T22:40:26.372Z,1.00
2023-04-12T22:42:53.069Z,1.10
2023-04-12T22:45:39.390Z,0.92
2023-04-12T22:48:06.282Z,1.12
2023-04-12T22:50:33.115Z,0.96
2023-04-12T22:52:59.820Z,1.14
2023-04-12T22:55:26.584Z,1.27
2023-04-12T22:57:53.334Z,1.26
2023-04-12T23:00:27.423Z,1.19
2023-04-12T23:02:54.573Z,0.99
2023-04-12T23:05:21.507Z,1.10
2023-04-12T23:07:48.259Z,1.14
2023-04-12T23:10:15.582Z,1.49
2023-04-12T23:12:42.337Z,1.15
2023-04-12T23:15:10.112Z,1.19
2023-04-12T23:17:37.404Z,0.96
2023-04-12T23:20:04.704Z,1.34
2023-04-12T23:22:47.928Z,1.23
2023-04-12T23:25:22.180Z,1.12
2023-04-12T23:27:49.461Z,1.17
2023-04-12T23:30:17.483Z,1.09
2023-04-12T23:32:44.354Z,1.09
2023-04-12T23:35:11.278Z,1.26
2023-04-12T23:37:38.280Z,1.11
2023-04-12T23:40:05.275Z,1.30
2023-04-12T23:42:32.977Z,1.42
2023-04-12T23:45:00.624Z,1.48
2023-04-12T23:47:29.476Z,1.26
2023-04-12T23:49:56.218Z,1.16
2023-04-12T23:52:22.888Z,1.18
2023-04-12T23:54:49.592Z,1.43
2023-04-12T23:57:16.310Z,1.17
2023-04-12T23:59:43.326Z,1.07
